Main page
METAR-TAF:

METAR-TAF

Airports :

Pskov Airport

Pskov, Russia

latitude: 57-47-06N, longitude: 028-23-54E, elevation: 47 m

Current weather observation

The report was made 32 minutes ago, at 02:00 UTC
Wind 2 kt from variable directions
Temperature 8°C
Humidity 87%
Pressure 1026 hPa
Visibility: 9000 m

METAR: ULOO 220200Z AUTO VRB01MPS 9000 // NCD 08/06 Q1026 RMK QFE765

Time: 05:32 (02:32 UTC)

Forecast

The report was made 12 hours and 34 minutes ago, at 13:58 UTC
Forecast valid from 21 at 15 UTC to 21 at 24 UTC
Wind 6 kt from the East
Visibility 10 km or more
Scattered clouds at a height of 3000 ft

TAF: ULOO 211358Z 2115/2124 10003MPS 9999 SCT030

Weather observations and forecasts of more than 4000 airports (METAR and TAF reports).

The available stations are represented by yellow and red dots on the map.

Hover mouse over dot to see the name of the station.

Then click to see weather observations and forecasts.

To change the map : click on the green buttons with a black cross to zoom in, on the green button with a dash to zoom out, or on the green arrows for adjacent maps.


METAR-TAF: